Time;durP1;ratioP1;P1;durP2;ratioP2;P2;SDS_P1;SDS_P2;PMS_P1;PMS_P2;Temp;Humidity;BMP_temperature;BMP_pressure;BME280_temperature;BME280_humidity;BME280_pressure;Samples;Min_cycle;Max_cycle;Signal;HPM_P1;HPM_P2
2024/01/07 00:00:38;;;;;;;0.80;0.73;;;;;;;;;;5005215;28;20939;-73
2024/01/07 00:03:06;;;;;;;2.73;0.83;;;6.10;99.90;;;;;;5012603;28;20807;-72
2024/01/07 00:05:36;;;;;;;0.70;0.43;;;6.10;99.90;;;;;;5011574;28;20459;-73
2024/01/07 00:08:04;;;;;;;0.50;0.20;;;6.10;99.90;;;;;;5003944;28;21024;-73
2024/01/07 00:10:32;;;;;;;0.50;0.10;;;6.10;99.90;;;;;;5001221;28;20437;-72
2024/01/07 00:13:00;;;;;;;0.60;0.43;;;6.10;99.90;;;;;;4996024;28;20534;-72
2024/01/07 00:15:29;;;;;;;1.10;0.40;;;6.10;99.90;;;;;;5009621;28;20511;-70
2024/01/07 00:17:58;;;;;;;0.70;0.30;;;6.10;99.90;;;;;;4998929;28;20460;-72
2024/01/07 00:20:26;;;;;;;0.70;0.53;;;6.10;99.90;;;;;;4996770;28;20440;-71
2024/01/07 00:22:54;;;;;;;1.50;1.40;;;6.10;99.90;;;;;;5004335;28;20448;-73
2024/01/07 00:25:21;;;;;;;0.50;0.10;;;6.00;99.90;;;;;;4994269;28;20440;-71
2024/01/07 00:27:51;;;;;;;0.50;0.10;;;6.10;99.90;;;;;;4994776;28;20495;-73
2024/01/07 00:30:20;;;;;;;0.70;0.50;;;6.00;99.90;;;;;;5000028;28;20464;-74
2024/01/07 00:32:51;;;;;;;0.80;0.40;;;6.00;99.90;;;;;;4999099;28;20449;-73
2024/01/07 00:35:20;;;;;;;0.50;0.10;;;6.00;99.90;;;;;;5008420;28;20479;-72
2024/01/07 00:37:48;;;;;;;1.33;0.80;;;6.10;99.90;;;;;;5003308;28;20579;-73
2024/01/07 00:40:16;;;;;;;0.60;0.50;;;6.00;99.90;;;;;;5006746;28;20543;-72
2024/01/07 00:42:44;;;;;;;0.80;0.77;;;6.00;99.90;;;;;;4999998;28;20492;-72
2024/01/07 00:45:12;;;;;;;0.50;0.20;;;;;;;;;;5011368;28;20542;-70
2024/01/07 00:47:43;;;;;;;0.60;0.50;;;;;;;;;;5015557;28;20475;-72
2024/01/07 00:50:11;;;;;;;2.63;1.13;;;;;;;;;;5015518;28;20997;-72
2024/01/07 00:52:43;;;;;;;0.50;0.10;;;;;;;;;;4996037;28;20484;-72
2024/01/07 00:55:10;;;;;;;0.50;0.20;;;6.00;99.90;;;;;;4995568;28;20836;-73
2024/01/07 00:57:38;;;;;;;0.50;0.10;;;5.90;99.90;;;;;;5002164;28;20547;-72
2024/01/07 01:00:08;;;;;;;0.93;0.47;;;6.00;99.90;;;;;;5006550;28;20456;-71
2024/01/07 01:02:37;;;;;;;1.03;0.73;;;6.00;99.90;;;;;;5014262;28;20970;-72
2024/01/07 01:05:06;;;;;;;0.50;0.10;;;6.00;99.90;;;;;;5014965;28;20435;-72
2024/01/07 01:07:34;;;;;;;3.57;1.00;;;6.00;99.90;;;;;;4995660;28;20535;-72
2024/01/07 01:10:03;;;;;;;0.73;0.30;;;5.90;99.90;;;;;;5003412;28;20528;-72
2024/01/07 01:12:31;;;;;;;0.50;0.10;;;6.00;99.90;;;;;;5012264;28;20440;-72
2024/01/07 01:14:59;;;;;;;0.83;0.83;;;6.00;99.90;;;;;;4996776;28;20484;-71
2024/01/07 01:17:27;;;;;;;0.70;0.43;;;6.00;99.90;;;;;;4995845;28;20491;-72
2024/01/07 01:19:55;;;;;;;0.50;0.10;;;5.90;99.90;;;;;;4995273;28;20441;-73
2024/01/07 01:22:23;;;;;;;0.50;0.10;;;5.90;99.90;;;;;;4995737;28;20484;-71
2024/01/07 01:24:52;;;;;;;1.80;0.57;;;5.90;99.90;;;;;;4995621;28;20476;-71
2024/01/07 01:27:21;;;;;;;1.83;1.70;;;5.80;99.90;;;;;;4994941;28;20468;-72
2024/01/07 01:29:49;;;;;;;0.50;0.20;;;5.80;99.90;;;;;;4994882;28;20445;-72
2024/01/07 01:32:17;;;;;;;0.60;0.40;;;5.80;99.90;;;;;;4999783;28;20464;-72
2024/01/07 01:34:45;;;;;;;0.80;0.43;;;5.80;99.90;;;;;;5022521;28;20483;-71
2024/01/07 01:37:13;;;;;;;2.70;2.50;;;5.80;99.90;;;;;;5024661;28;20499;-72
2024/01/07 01:39:42;;;;;;;0.50;0.20;;;5.80;99.90;;;;;;5024727;28;20468;-72
2024/01/07 01:42:10;;;;;;;0.60;0.57;;;3.60;99.90;;;;;;5014233;28;20445;-72
2024/01/07 01:44:39;;;;;;;0.60;0.40;;;5.80;99.90;;;;;;5018135;28;20519;-72
2024/01/07 01:47:07;;;;;;;0.80;0.60;;;5.60;99.90;;;;;;5014446;28;20551;-72
2024/01/07 01:49:37;;;;;;;0.60;0.40;;;5.70;99.90;;;;;;4995507;28;20493;-72
2024/01/07 01:52:06;;;;;;;0.50;0.10;;;5.70;99.90;;;;;;5004168;28;20440;-72
2024/01/07 01:54:35;;;;;;;0.63;0.27;;;5.80;99.90;;;;;;5002940;28;20448;-72
2024/01/07 01:57:03;;;;;;;0.50;0.30;;;5.70;99.90;;;;;;5002979;28;20477;-72
2024/01/07 01:59:31;;;;;;;0.50;0.10;;;5.80;99.90;;;;;;5005537;28;20539;-72
2024/01/07 02:02:02;;;;;;;0.93;0.93;;;5.80;99.90;;;;;;5000656;28;20496;-72
2024/01/07 02:04:30;;;;;;;0.50;0.10;;;5.80;99.90;;;;;;5004187;28;20461;-72
2024/01/07 02:06:58;;;;;;;0.50;0.10;;;5.70;99.90;;;;;;5005644;28;20460;-72
2024/01/07 02:09:25;;;;;;;0.50;0.10;;;5.70;99.90;;;;;;5005742;28;20506;-73
2024/01/07 02:12:05;;;;;;;0.50;0.30;;;5.70;99.90;;;;;;5013325;28;20802;-73
2024/01/07 02:14:32;;;;;;;0.60;0.33;;;5.70;99.90;;;;;;5003307;28;20448;-71
2024/01/07 02:17:02;;;;;;;0.50;0.10;;;5.70;99.90;;;;;;5001761;28;20552;-71
2024/01/07 02:19:29;;;;;;;0.50;0.10;;;6.20;99.90;;;;;;5006041;28;20554;-72
2024/01/07 02:21:57;;;;;;;0.50;0.10;;;5.80;99.90;;;;;;5007659;28;20519;-71
2024/01/07 02:24:27;;;;;;;0.60;0.30;;;5.80;99.90;;;;;;5004198;28;20450;-72
2024/01/07 02:26:55;;;;;;;0.50;0.20;;;5.80;99.90;;;;;;5001771;28;20461;-71
2024/01/07 02:29:22;;;;;;;0.50;0.10;;;5.80;99.90;;;;;;5003079;28;20531;-73
2024/01/07 02:31:50;;;;;;;0.80;0.80;;;5.80;99.90;;;;;;5005413;28;20522;-72
2024/01/07 02:34:18;;;;;;;1.27;1.17;;;5.80;99.90;;;;;;5004983;28;20450;-71
2024/01/07 02:36:46;;;;;;;0.50;0.10;;;5.70;99.90;;;;;;5003968;28;20902;-73
2024/01/07 02:39:14;;;;;;;0.70;0.50;;;5.70;99.90;;;;;;5002427;28;20448;-73
2024/01/07 02:41:43;;;;;;;1.47;1.37;;;5.70;99.90;;;;;;5001802;28;20554;-72
2024/01/07 02:44:11;;;;;;;0.50;0.23;;;5.70;99.90;;;;;;5001544;28;20447;-72
2024/01/07 02:46:40;;;;;;;1.53;0.40;;;5.70;99.90;;;;;;5004445;28;20548;-73
2024/01/07 02:49:08;;;;;;;0.50;0.30;;;5.70;99.90;;;;;;5004422;28;20472;-72
2024/01/07 02:51:36;;;;;;;0.50;0.30;;;5.70;99.90;;;;;;5003558;28;20555;-72
2024/01/07 02:54:04;;;;;;;0.70;0.70;;;5.70;99.90;;;;;;5001201;28;20935;-72
2024/01/07 02:56:32;;;;;;;0.60;0.30;;;5.70;99.90;;;;;;5002835;28;20485;-72
2024/01/07 02:59:01;;;;;;;0.50;0.10;;;5.70;99.90;;;;;;5003590;28;20530;-72
2024/01/07 03:01:29;;;;;;;0.80;0.73;;;5.70;99.90;;;;;;5009414;28;20448;-72
2024/01/07 03:03:57;;;;;;;0.50;0.10;;;5.70;99.90;;;;;;5003987;28;20474;-72
2024/01/07 03:06:27;;;;;;;0.93;0.87;;;5.70;99.90;;;;;;5003233;28;20495;-73
2024/01/07 03:08:55;;;;;;;0.50;0.10;;;5.70;99.90;;;;;;5009361;28;20491;-72
2024/01/07 03:11:23;;;;;;;4.87;0.40;;;5.70;99.90;;;;;;5004411;28;20484;-71
2024/01/07 03:13:51;;;;;;;11.80;2.53;;;5.70;99.90;;;;;;5004366;28;20502;-72
2024/01/07 03:16:24;;;;;;;0.50;0.20;;;5.60;99.90;;;;;;5004128;28;20483;-72
2024/01/07 03:18:53;;;;;;;0.90;0.47;;;5.60;99.90;;;;;;5000655;28;20903;-71
2024/01/07 03:21:22;;;;;;;0.50;0.10;;;5.60;99.90;;;;;;5000477;28;20883;-71
2024/01/07 03:23:51;;;;;;;0.50;0.17;;;5.60;99.90;;;;;;4999482;28;20900;-71
2024/01/07 03:26:20;;;;;;;0.50;0.30;;;5.60;99.90;;;;;;5000497;28;20481;-72
2024/01/07 03:28:48;;;;;;;0.50;0.20;;;5.50;99.90;;;;;;5003753;28;20946;-71
2024/01/07 03:31:17;;;;;;;1.37;0.87;;;5.50;99.90;;;;;;5003947;28;20869;-71
2024/01/07 03:33:46;;;;;;;0.50;0.10;;;5.50;99.90;;;;;;5000311;28;20807;-71
2024/01/07 03:36:15;;;;;;;0.60;0.50;;;5.50;99.90;;;;;;5000150;28;20856;-72
2024/01/07 03:38:43;;;;;;;0.50;0.10;;;5.40;99.90;;;;;;5003285;28;20440;-72
2024/01/07 03:41:16;;;;;;;1.17;1.07;;;5.50;99.90;;;;;;5009281;28;20820;-72
2024/01/07 03:43:44;;;;;;;1.00;0.97;;;5.50;99.90;;;;;;5000504;28;20971;-72
2024/01/07 03:46:12;;;;;;;0.50;0.20;;;5.50;99.90;;;;;;4999506;28;20808;-72
2024/01/07 03:48:40;;;;;;;2.97;1.97;;;5.50;99.90;;;;;;5001175;28;20454;-72
2024/01/07 03:51:10;;;;;;;1.90;0.87;;;5.40;99.90;;;;;;5000345;28;20446;-72
2024/01/07 03:53:38;;;;;;;0.50;0.10;;;5.40;99.90;;;;;;4992173;28;20445;-72
2024/01/07 03:56:06;;;;;;;2.20;1.53;;;5.50;99.90;;;;;;4997522;28;20566;-71
2024/01/07 03:58:35;;;;;;;0.50;0.10;;;5.50;99.90;;;;;;5001911;28;20472;-72
2024/01/07 04:01:03;;;;;;;0.97;0.63;;;5.50;99.90;;;;;;5000638;28;20531;-72
2024/01/07 04:03:31;;;;;;;0.50;0.10;;;5.50;99.90;;;;;;5001357;28;20444;-71
2024/01/07 04:05:59;;;;;;;3.20;2.27;;;5.50;99.90;;;;;;5003910;28;20796;-72
2024/01/07 04:08:29;;;;;;;1.13;1.03;;;5.50;99.90;;;;;;5002763;28;20459;-72
2024/01/07 04:10:56;;;;;;;0.50;0.10;;;5.50;99.90;;;;;;5000673;28;20478;-72
2024/01/07 04:13:24;;;;;;;1.93;1.20;;;5.50;99.90;;;;;;5000554;28;20499;-72
2024/01/07 04:15:52;;;;;;;0.50;0.20;;;5.50;99.90;;;;;;4999818;28;20532;-72
2024/01/07 04:18:20;;;;;;;0.87;0.87;;;5.40;99.90;;;;;;5003896;28;20465;-72
2024/01/07 04:20:48;;;;;;;1.10;0.67;;;5.50;99.90;;;;;;5001388;28;20820;-72
2024/01/07 04:23:16;;;;;;;0.50;0.10;;;5.50;99.90;;;;;;5007157;28;20534;-72
2024/01/07 04:25:45;;;;;;;0.90;0.33;;;5.50;99.90;;;;;;5004317;28;20476;-72
2024/01/07 04:28:13;;;;;;;0.80;0.77;;;5.60;99.90;;;;;;5009585;28;20484;-72
2024/01/07 04:30:41;;;;;;;0.60;0.40;;;5.50;99.90;;;;;;5016838;28;20949;-72
2024/01/07 04:33:09;;;;;;;0.70;0.60;;;5.50;99.90;;;;;;5010207;28;20448;-73
2024/01/07 04:35:37;;;;;;;1.37;1.27;;;5.50;99.90;;;;;;5013297;28;20444;-72
2024/01/07 04:38:05;;;;;;;1.87;1.17;;;5.50;99.90;;;;;;5008810;28;20564;-72
2024/01/07 04:40:32;;;;;;;0.50;0.10;;;5.50;99.90;;;;;;5010467;28;20447;-72
2024/01/07 04:43:02;;;;;;;0.57;0.33;;;5.50;99.90;;;;;;5006790;28;20449;-70
2024/01/07 04:45:29;;;;;;;0.50;0.10;;;5.50;99.90;;;;;;5004341;28;20461;-72
2024/01/07 04:47:57;;;;;;;3.33;0.80;;;5.60;99.90;;;;;;5007692;28;20464;-72
2024/01/07 04:50:25;;;;;;;1.80;0.30;;;5.60;99.90;;;;;;5007803;28;20448;-72
2024/01/07 04:52:53;;;;;;;0.50;0.23;;;5.60;99.90;;;;;;5004193;28;20931;-72
2024/01/07 04:55:21;;;;;;;2.33;2.23;;;5.60;99.90;;;;;;5003720;28;20855;-73
2024/01/07 04:57:49;;;;;;;1.63;1.53;;;5.60;99.90;;;;;;5006264;28;20557;-72
2024/01/07 05:00:17;;;;;;;0.70;0.63;;;5.50;99.90;;;;;;5007228;28;20440;-72
2024/01/07 05:02:45;;;;;;;4.73;1.63;;;5.50;99.90;;;;;;4999949;28;20590;-72
2024/01/07 05:05:13;;;;;;;0.50;0.10;;;5.50;99.90;;;;;;5005631;28;20452;-71
2024/01/07 05:07:41;;;;;;;0.63;0.40;;;5.50;99.90;;;;;;5003349;28;20832;-71
2024/01/07 05:10:10;;;;;;;2.27;1.63;;;5.60;99.90;;;;;;5008207;28;20468;-72
2024/01/07 05:12:38;;;;;;;0.90;0.43;;;5.60;99.90;;;;;;5005378;28;20812;-73
2024/01/07 05:15:06;;;;;;;1.13;1.03;;;5.50;99.90;;;;;;5006104;28;20526;-72
2024/01/07 05:17:36;;;;;;;0.50;0.10;;;5.50;99.90;;;;;;5004290;28;20483;-72
2024/01/07 05:20:06;;;;;;;0.50;0.10;;;5.50;99.90;;;;;;5001192;28;20833;-73
2024/01/07 05:22:34;;;;;;;2.67;2.07;;;5.50;99.90;;;;;;5003486;28;20453;-73
2024/01/07 05:25:02;;;;;;;0.70;0.43;;;5.40;99.90;;;;;;5006403;28;20498;-71
2024/01/07 05:27:30;;;;;;;3.23;1.20;;;5.40;99.90;;;;;;5005403;28;20490;-71
2024/01/07 05:29:58;;;;;;;0.60;0.40;;;5.40;99.90;;;;;;5006482;28;20450;-72
2024/01/07 05:32:25;;;;;;;0.83;0.83;;;5.30;99.90;;;;;;4997717;28;20531;-72
2024/01/07 05:34:55;;;;;;;0.50;0.10;;;5.30;99.90;;;;;;5002137;28;20471;-72
2024/01/07 05:37:23;;;;;;;1.57;1.47;;;5.30;99.90;;;;;;5000922;28;20510;-71
2024/01/07 05:39:50;;;;;;;0.50;0.30;;;5.30;99.90;;;;;;5005268;28;20476;-72
2024/01/07 05:42:18;;;;;;;1.10;0.97;;;5.30;99.90;;;;;;5005690;28;20455;-72
2024/01/07 05:44:46;;;;;;;1.47;0.60;;;5.30;99.90;;;;;;5002858;28;20506;-70
2024/01/07 05:47:14;;;;;;;0.57;0.40;;;5.30;99.90;;;;;;5001770;28;20493;-73
2024/01/07 05:49:42;;;;;;;1.13;0.63;;;5.30;99.90;;;;;;5002085;28;20939;-72
2024/01/07 05:52:11;;;;;;;1.47;1.27;;;5.20;99.90;;;;;;5001799;28;20449;-72
2024/01/07 05:54:39;;;;;;;3.80;1.73;;;5.20;99.90;;;;;;5010125;28;20526;-71
2024/01/07 05:57:07;;;;;;;2.03;1.90;;;5.10;99.90;;;;;;5001968;28;20558;-71
2024/01/07 05:59:35;;;;;;;1.87;1.30;;;5.10;99.90;;;;;;5002161;28;20507;-71
2024/01/07 06:02:03;;;;;;;1.17;0.93;;;5.00;99.90;;;;;;5005467;28;20468;-72
2024/01/07 06:04:30;;;;;;;8.17;2.73;;;5.00;99.90;;;;;;5002288;28;20857;-72
2024/01/07 06:06:59;;;;;;;4.10;2.20;;;5.00;99.90;;;;;;5004892;28;20522;-72
2024/01/07 06:09:28;;;;;;;1.07;0.97;;;5.00;99.90;;;;;;5001914;28;20465;-72
2024/01/07 06:11:56;;;;;;;3.07;1.13;;;5.00;99.90;;;;;;5004773;28;20436;-72
2024/01/07 06:14:24;;;;;;;6.37;1.70;;;4.90;99.90;;;;;;5004027;28;20531;-72
2024/01/07 06:16:52;;;;;;;4.40;2.77;;;4.80;99.90;;;;;;5001279;28;20835;-72
2024/01/07 06:19:21;;;;;;;3.10;2.07;;;4.80;99.90;;;;;;5001620;28;20544;-72
2024/01/07 06:21:49;;;;;;;4.33;1.50;;;4.80;99.90;;;;;;5004290;28;20570;-72
2024/01/07 06:24:17;;;;;;;0.83;0.77;;;4.80;99.90;;;;;;4998399;28;20523;-72
2024/01/07 06:26:45;;;;;;;5.90;2.03;;;4.80;99.90;;;;;;5003170;28;20472;-72
2024/01/07 06:29:13;;;;;;;0.93;0.90;;;4.80;99.90;;;;;;5004676;28;20890;-72
2024/01/07 06:31:45;;;;;;;1.57;1.47;;;4.80;99.90;;;;;;4994820;28;21211;-71
2024/01/07 06:34:13;;;;;;;0.50;0.10;;;4.80;99.90;;;;;;4999103;28;20923;-71
2024/01/07 06:36:42;;;;;;;3.07;2.87;;;4.90;99.90;;;;;;5019708;28;20479;-72
2024/01/07 06:39:10;;;;;;;7.70;3.33;;;4.80;99.90;;;;;;5016340;28;20476;-71
2024/01/07 06:41:38;;;;;;;4.97;0.67;;;4.80;99.90;;;;;;5027600;28;20481;-71
2024/01/07 06:44:07;;;;;;;1.87;1.33;;;4.80;99.90;;;;;;5024631;28;20451;-71
2024/01/07 06:46:35;;;;;;;0.50;0.10;;;4.80;99.90;;;;;;5021706;28;20522;-71
2024/01/07 06:49:03;;;;;;;2.40;2.20;;;4.80;99.90;;;;;;5006512;28;20526;-71
2024/01/07 06:51:31;;;;;;;3.83;2.77;;;4.80;99.90;;;;;;5012876;28;20498;-72
2024/01/07 06:53:59;;;;;;;2.97;2.67;;;4.70;99.90;;;;;;4993280;28;20456;-71
2024/01/07 06:56:27;;;;;;;4.03;3.80;;;4.60;99.90;;;;;;4994061;28;20477;-71
2024/01/07 06:58:54;;;;;;;0.50;0.30;;;4.60;99.90;;;;;;5000523;28;21002;-72
2024/01/07 07:01:24;;;;;;;4.07;2.30;;;4.60;99.90;;;;;;5012186;28;20906;-71
2024/01/07 07:03:52;;;;;;;0.70;0.67;;;4.50;99.90;;;;;;5007554;28;20477;-71
2024/01/07 07:06:20;;;;;;;0.80;0.80;;;4.60;99.90;;;;;;5011938;28;20498;-71
2024/01/07 07:08:47;;;;;;;1.30;1.07;;;4.50;99.90;;;;;;5013203;28;20444;-72
2024/01/07 07:11:16;;;;;;;1.43;0.97;;;4.50;99.90;;;;;;5011954;28;20460;-71
2024/01/07 07:13:44;;;;;;;6.00;3.13;;;4.50;99.90;;;;;;4997223;28;20539;-71
2024/01/07 07:16:12;;;;;;;1.27;0.60;;;4.50;99.90;;;;;;5012034;28;20479;-71
2024/01/07 07:18:42;;;;;;;3.60;3.30;;;4.50;99.90;;;;;;5012032;28;21024;-72
2024/01/07 07:21:11;;;;;;;1.90;1.17;;;4.50;99.90;;;;;;5007692;28;20542;-72
2024/01/07 07:23:39;;;;;;;1.53;0.97;;;4.40;99.90;;;;;;5006444;28;20539;-71
2024/01/07 07:26:08;;;;;;;4.70;1.80;;;4.40;99.90;;;;;;5008895;28;20535;-72
2024/01/07 07:28:35;;;;;;;1.37;1.13;;;4.40;99.90;;;;;;5000232;28;20878;-73
2024/01/07 07:31:03;;;;;;;8.70;3.10;;;4.40;99.90;;;;;;5020078;28;20442;-72
2024/01/07 07:33:31;;;;;;;4.93;1.53;;;4.40;99.90;;;;;;5017165;28;20475;-72
2024/01/07 07:36:01;;;;;;;0.70;0.60;;;4.30;99.90;;;;;;5008162;28;20457;-72
2024/01/07 07:38:29;;;;;;;4.00;3.70;;;1.90;99.90;;;;;;4992616;28;20486;-73
2024/01/07 07:40:57;;;;;;;1.03;0.93;;;4.30;99.90;;;;;;4994225;28;20981;-72
2024/01/07 07:43:24;;;;;;;2.57;1.93;;;4.30;99.90;;;;;;4993513;28;20456;-71
2024/01/07 07:45:52;;;;;;;0.60;0.43;;;4.30;99.90;;;;;;4993642;28;20535;-70
2024/01/07 07:48:20;;;;;;;1.90;1.80;;;4.30;99.90;;;;;;5007820;28;20575;-70
2024/01/07 07:50:49;;;;;;;5.20;0.83;;;4.30;99.90;;;;;;5003171;28;20497;-72
2024/01/07 07:53:19;;;;;;;2.00;1.80;;;4.30;99.90;;;;;;5012856;28;20549;-71
2024/01/07 07:55:46;;;;;;;2.47;1.57;;;4.20;99.90;;;;;;5012826;28;20474;-72
2024/01/07 07:58:14;;;;;;;2.17;2.07;;;4.20;99.90;;;;;;5012357;28;20483;-72
2024/01/07 08:00:42;;;;;;;0.50;0.10;;;4.30;99.90;;;;;;4992797;28;20547;-71
2024/01/07 08:03:10;;;;;;;1.37;0.50;;;4.30;99.90;;;;;;4996465;28;20536;-72
2024/01/07 08:05:38;;;;;;;2.10;1.17;;;4.20;99.90;;;;;;4995509;28;20538;-72
2024/01/07 08:08:07;;;;;;;2.40;2.20;;;4.30;99.90;;;;;;4991896;28;20491;-72
2024/01/07 08:10:36;;;;;;;2.47;2.10;;;4.30;99.90;;;;;;5000231;28;20531;-72
2024/01/07 08:13:04;;;;;;;2.30;1.87;;;4.20;99.90;;;;;;4992446;28;20504;-72
2024/01/07 08:15:32;;;;;;;2.23;1.30;;;4.10;99.90;;;;;;4991934;28;20503;-70
2024/01/07 08:18:00;;;;;;;4.40;2.73;;;4.10;99.90;;;;;;4991769;28;20468;-72
2024/01/07 08:20:27;;;;;;;3.97;1.10;;;4.10;99.90;;;;;;4993639;28;20488;-72
2024/01/07 08:22:55;;;;;;;3.40;2.40;;;4.00;99.90;;;;;;4992214;28;20823;-72
2024/01/07 08:25:23;;;;;;;1.90;1.07;;;4.00;99.90;;;;;;4999412;28;20808;-72
2024/01/07 08:27:52;;;;;;;3.30;1.53;;;4.00;99.90;;;;;;5002839;28;21007;-72
2024/01/07 08:30:20;;;;;;;4.63;3.20;;;4.10;99.90;;;;;;4997199;28;20518;-72
2024/01/07 08:32:48;;;;;;;0.83;0.83;;;4.00;99.90;;;;;;4992557;28;20453;-72
2024/01/07 08:35:17;;;;;;;0.90;0.57;;;4.00;99.90;;;;;;5000917;28;20445;-71
2024/01/07 08:37:47;;;;;;;3.53;2.70;;;4.10;99.90;;;;;;5007447;28;21336;-71
2024/01/07 08:40:16;;;;;;;4.17;2.07;;;4.10;99.90;;;;;;4997925;28;20853;-71
2024/01/07 08:42:44;;;;;;;0.50;0.20;;;4.00;99.90;;;;;;4997277;28;20496;-70
2024/01/07 08:45:14;;;;;;;10.60;4.50;;;4.00;99.90;;;;;;5001581;28;20459;-71
2024/01/07 08:47:41;;;;;;;3.33;3.03;;;4.00;99.90;;;;;;5008950;28;20460;-72
2024/01/07 08:50:12;;;;;;;1.23;0.53;;;3.90;99.90;;;;;;4999010;28;20448;-71
2024/01/07 08:52:40;;;;;;;0.50;0.10;;;4.00;99.90;;;;;;4997833;28;20532;-71
2024/01/07 08:55:10;;;;;;;0.77;0.77;;;4.00;99.90;;;;;;4999934;28;20526;-70
2024/01/07 08:57:38;;;;;;;6.47;4.20;;;4.00;99.90;;;;;;4999750;28;20971;-72
2024/01/07 09:00:08;;;;;;;4.27;3.00;;;3.90;99.90;;;;;;4996981;28;20480;-72
2024/01/07 09:02:38;;;;;;;1.27;0.83;;;3.90;99.90;;;;;;5001715;28;20473;-71
2024/01/07 09:05:10;;;;;;;1.80;0.60;;;3.90;99.90;;;;;;5001219;28;20440;-73
2024/01/07 09:07:38;;;;;;;3.53;3.23;;;3.90;99.90;;;;;;5005021;28;20471;-71
2024/01/07 09:10:10;;;;;;;5.70;3.40;;;3.90;99.90;;;;;;5003112;28;20433;-72
2024/01/07 09:12:38;;;;;;;1.60;1.50;;;4.00;99.90;;;;;;4999265;28;20452;-71
2024/01/07 09:15:08;;;;;;;6.63;3.00;;;4.10;99.90;;;;;;4999797;28;20511;-71
2024/01/07 09:17:38;;;;;;;3.40;2.23;;;4.10;99.90;;;;;;5005835;28;20483;-71
2024/01/07 09:20:09;;;;;;;1.43;1.33;;;4.10;99.90;;;;;;5003093;28;20475;-73
2024/01/07 09:22:37;;;;;;;1.80;1.70;;;4.00;99.90;;;;;;5012752;28;20443;-71
2024/01/07 09:25:06;;;;;;;3.60;3.30;;;4.10;99.90;;;;;;5002920;28;20468;-71
2024/01/07 09:27:34;;;;;;;6.50;4.27;;;4.10;99.90;;;;;;5007930;28;20482;-73
2024/01/07 09:30:03;;;;;;;2.77;1.70;;;4.00;99.90;;;;;;5010665;28;20898;-71
2024/01/07 09:32:31;;;;;;;3.70;2.73;;;;;;;;;;5002492;28;20440;-72
2024/01/07 09:35:05;;;;;;;3.60;2.30;;;3.90;99.90;;;;;;5005506;28;20437;-71
2024/01/07 09:37:35;;;;;;;3.13;2.83;;;3.90;99.90;;;;;;5005148;28;20471;-72
2024/01/07 09:40:04;;;;;;;4.33;1.07;;;3.90;99.90;;;;;;5002555;28;20850;-71
2024/01/07 09:42:32;;;;;;;2.80;1.97;;;3.80;99.90;;;;;;5002241;28;20449;-72
2024/01/07 09:45:04;;;;;;;1.60;1.40;;;3.80;99.90;;;;;;4995548;28;20991;-72
2024/01/07 09:47:32;;;;;;;1.33;1.23;;;3.80;99.90;;;;;;5004907;28;20472;-71
2024/01/07 09:50:00;;;;;;;4.30;2.53;;;3.80;99.90;;;;;;5002509;28;20447;-71
2024/01/07 09:52:30;;;;;;;0.50;0.20;;;3.80;99.90;;;;;;5008297;28;20946;-72
2024/01/07 09:55:03;;;;;;;1.67;1.57;;;3.80;99.90;;;;;;5002795;28;20475;-74
2024/01/07 09:57:31;;;;;;;0.80;0.73;;;3.70;99.90;;;;;;5000847;28;20515;-70
2024/01/07 10:00:01;;;;;;;0.80;0.67;;;3.70;99.90;;;;;;5008717;28;20491;-73
2024/01/07 10:02:29;;;;;;;1.30;0.60;;;3.80;99.90;;;;;;5001780;28;20448;-72
2024/01/07 10:04:57;;;;;;;1.37;0.67;;;3.80;99.90;;;;;;5003558;28;20483;-72
2024/01/07 10:07:26;;;;;;;2.30;2.20;;;3.80;99.90;;;;;;4999573;28;20884;-72
2024/01/07 10:09:56;;;;;;;0.70;0.43;;;3.70;99.90;;;;;;5004450;28;20445;-71
2024/01/07 10:12:24;;;;;;;1.47;1.30;;;3.70;99.90;;;;;;4999105;28;20884;-71
2024/01/07 10:14:52;;;;;;;1.07;0.83;;;3.70;99.90;;;;;;5002013;28;20475;-72
2024/01/07 10:17:21;;;;;;;0.80;0.73;;;3.70;99.90;;;;;;4997750;28;20468;-73
2024/01/07 10:19:48;;;;;;;0.90;0.53;;;3.70;99.90;;;;;;5003760;28;20560;-72
2024/01/07 10:22:17;;;;;;;1.63;1.53;;;3.80;99.90;;;;;;5001707;28;20449;-76
2024/01/07 10:24:45;;;;;;;1.17;1.07;;;3.70;99.90;;;;;;4998193;28;20551;-72
2024/01/07 10:27:14;;;;;;;0.60;0.37;;;3.70;99.90;;;;;;5015206;28;20468;-72
2024/01/07 10:29:42;;;;;;;0.90;0.30;;;3.80;99.90;;;;;;5019818;28;20460;-74
2024/01/07 10:32:10;;;;;;;1.33;0.93;;;3.80;99.90;;;;;;5015899;28;20484;-72
2024/01/07 10:34:38;;;;;;;0.93;0.83;;;3.80;99.90;;;;;;5004436;28;20448;-72
2024/01/07 10:37:06;;;;;;;0.70;0.57;;;3.80;99.90;;;;;;5001777;28;20464;-71
2024/01/07 10:39:34;;;;;;;0.50;0.20;;;3.90;99.90;;;;;;4998711;28;20523;-70
2024/01/07 10:42:02;;;;;;;2.00;1.90;;;3.90;99.90;;;;;;5002720;28;20535;-73
2024/01/07 10:44:33;;;;;;;0.50;0.10;;;3.90;99.90;;;;;;4996812;28;20540;-72
2024/01/07 10:47:05;;;;;;;2.00;1.63;;;3.90;99.90;;;;;;5010376;28;20969;-72
2024/01/07 10:49:33;;;;;;;2.83;2.73;;;3.80;99.90;;;;;;5001004;28;20481;-72
2024/01/07 10:52:05;;;;;;;1.27;0.83;;;3.80;99.90;;;;;;5000309;28;20444;-71
2024/01/07 10:54:34;;;;;;;1.60;1.50;;;3.80;99.90;;;;;;5001333;28;20467;-73
2024/01/07 10:57:13;;;;;;;1.93;1.67;;;3.80;99.90;;;;;;5003119;28;20476;-73
2024/01/07 10:59:45;;;;;;;2.50;1.43;;;3.80;99.90;;;;;;5003706;28;20468;-73
2024/01/07 11:02:14;;;;;;;1.97;1.87;;;3.80;99.90;;;;;;5002089;28;20814;-76
2024/01/07 11:04:48;;;;;;;1.47;0.70;;;3.70;99.90;;;;;;5006071;28;20452;-73
2024/01/07 11:07:22;;;;;;;0.50;0.10;;;3.80;99.90;;;;;;5005827;28;20460;-73
2024/01/07 11:10:01;;;;;;;0.60;0.40;;;3.80;99.90;;;;;;4999365;28;20468;-71
2024/01/07 11:12:29;;;;;;;0.73;0.23;;;3.80;99.90;;;;;;5007407;28;20961;-73
2024/01/07 11:14:58;;;;;;;0.60;0.50;;;3.70;99.90;;;;;;5005307;28;20825;-72
2024/01/07 11:17:45;;;;;;;0.50;0.30;;;3.70;99.90;;;;;;5010463;28;20828;-72
2024/01/07 11:20:26;;;;;;;2.37;1.03;;;3.70;99.90;;;;;;5009469;28;20608;-72
2024/01/07 11:23:27;;;;;;;1.13;0.87;;;3.70;99.90;;;;;;5003712;28;20962;-72
2024/01/07 11:25:57;;;;;;;2.40;2.10;;;3.60;99.90;;;;;;5004745;28;20472;-71
2024/01/07 11:28:45;;;;;;;0.60;0.40;;;3.70;99.90;;;;;;5005042;28;20461;-72
2024/01/07 11:31:15;;;;;;;2.03;1.60;;;3.70;99.90;;;;;;5014414;28;20503;-73
2024/01/07 11:33:45;;;;;;;1.00;0.57;;;3.70;99.90;;;;;;5015582;28;20516;-72
2024/01/07 11:36:13;;;;;;;0.60;0.20;;;3.80;99.90;;;;;;5001450;28;20968;-73
2024/01/07 11:38:45;;;;;;;0.70;0.50;;;3.80;99.90;;;;;;4993329;28;21156;-73
2024/01/07 11:41:18;;;;;;;1.00;0.73;;;3.80;99.90;;;;;;5003406;28;20485;-71
2024/01/07 11:43:58;;;;;;;2.20;2.00;;;3.80;99.90;;;;;;5001030;28;20476;-71
2024/01/07 11:46:34;;;;;;;0.60;0.37;;;3.90;99.90;;;;;;4999864;28;20464;-70
2024/01/07 11:49:02;;;;;;;0.60;0.47;;;3.90;99.90;;;;;;5007093;28;21133;-71
2024/01/07 11:51:32;;;;;;;3.37;1.97;;;3.80;99.90;;;;;;5006436;28;20500;-71
2024/01/07 11:54:01;;;;;;;1.37;1.23;;;3.70;99.90;;;;;;4998049;28;20524;-72
2024/01/07 11:56:29;;;;;;;1.53;1.40;;;3.60;99.90;;;;;;5001622;28;20564;-72
2024/01/07 11:58:58;;;;;;;2.40;1.60;;;;;;;;;;5000988;28;20491;-70
2024/01/07 12:01:26;;;;;;;1.77;1.37;;;3.40;99.90;;;;;;5005498;28;20577;-70
2024/01/07 12:03:56;;;;;;;1.27;0.77;;;3.50;99.90;;;;;;5010317;28;20448;-71
2024/01/07 12:06:24;;;;;;;0.60;0.60;;;3.40;99.90;;;;;;4994432;28;20496;-71
2024/01/07 12:08:53;;;;;;;5.23;1.33;;;3.50;99.90;;;;;;4996386;28;20464;-71
2024/01/07 12:11:23;;;;;;;1.30;1.20;;;3.50;99.90;;;;;;5001175;28;20445;-71
2024/01/07 12:13:51;;;;;;;2.50;1.83;;;;;;;;;;4996549;28;20535;-72
2024/01/07 12:16:20;;;;;;;0.50;0.20;;;3.50;99.90;;;;;;4998696;28;20993;-72
2024/01/07 12:18:48;;;;;;;1.93;1.43;;;3.50;99.90;;;;;;5007128;28;20467;-72
2024/01/07 12:21:21;;;;;;;1.33;0.80;;;3.50;99.90;;;;;;4999832;28;20512;-71
2024/01/07 12:23:51;;;;;;;1.03;0.93;;;3.50;99.90;;;;;;4993659;28;20448;-70
2024/01/07 12:26:19;;;;;;;1.93;1.33;;;3.50;99.90;;;;;;5003627;28;20498;-70
2024/01/07 12:28:53;;;;;;;1.03;0.93;;;3.50;99.90;;;;;;5006576;28;20475;-71
2024/01/07 12:31:21;;;;;;;2.33;2.13;;;3.50;99.90;;;;;;5003002;28;20890;-69
2024/01/07 12:33:49;;;;;;;1.67;0.40;;;3.40;99.90;;;;;;5011816;28;20439;-71
2024/01/07 12:36:22;;;;;;;0.70;0.70;;;3.40;99.90;;;;;;4998405;28;20448;-73
2024/01/07 12:38:53;;;;;;;3.93;1.73;;;3.40;99.90;;;;;;5005957;28;20451;-72
2024/01/07 12:41:22;;;;;;;1.50;1.40;;;3.30;99.90;;;;;;5007057;28;20480;-71
2024/01/07 12:43:50;;;;;;;7.60;2.50;;;3.30;99.90;;;;;;5006951;28;20474;-71
2024/01/07 12:46:18;;;;;;;1.57;1.40;;;3.20;99.90;;;;;;4995403;28;20506;-71
2024/01/07 12:48:46;;;;;;;0.70;0.33;;;3.20;99.90;;;;;;5005548;28;20460;-72
2024/01/07 12:51:14;;;;;;;2.80;2.63;;;3.20;99.90;;;;;;4995557;28;21065;-71
2024/01/07 12:53:44;;;;;;;2.60;2.03;;;3.20;99.90;;;;;;5001423;28;20455;-74
2024/01/07 12:56:13;;;;;;;1.23;1.13;;;3.10;99.90;;;;;;5000442;28;20894;-73
2024/01/07 12:58:40;;;;;;;0.70;0.67;;;3.10;99.90;;;;;;5013705;28;20444;-71
2024/01/07 13:01:08;;;;;;;0.50;0.27;;;3.10;99.90;;;;;;4997769;28;20594;-71
2024/01/07 13:03:37;;;;;;;2.00;0.97;;;3.10;99.90;;;;;;5010093;28;20459;-71
2024/01/07 13:06:06;;;;;;;0.70;0.53;;;3.00;99.10;;;;;;5003711;28;20789;-72
2024/01/07 13:08:34;;;;;;;0.80;0.50;;;;;;;;;;4995150;28;20454;-72